Terminal Aerodrome Forecast
Issued by NWS Sterling, VA

Current Version | Previous Version | Text Only | Print | Product List | Glossary Off
Versions: 1 2 3 4 5 6 7 8 9 10 11 12 13 14 15 16 17 18 19 20 21 22 23 24

000
FTUS41 KLWX 211700
TAFDCA
TAF
KDCA 211722Z 2118/2218 17006KT P6SM FEW040 SCT090 BKN250
     FM212100 24006KT P6SM VCTS SCT030CB BKN150
     FM220400 00000KT P6SM BKN110
     FM221200 VRB03KT P6SM SCT100
     FM221300 35004KT P6SM BKN150=

USA.gov is the U.S. government's official web portal to all federal, state and local government web resources and services.